This is the latest recevied weather packets stored in our database for station/object WC4PEM-12. If no packets are shown the sender has not sent any weather packets the latest 10 day(s).
| Time | Temp. | Humidity | Pressure | Rain* | Wind** | Luminosity | Snow |
|---|---|---|---|---|---|---|---|
| 1777517892 | 23.89° C | 81% | 1013.5 hPa | 0 mm | - | - | - |
| 1777517592 | 23.89° C | 81% | 1013.6 hPa | 0 mm | - | - | - |
| 1777517333 | 23.89° C | 80% | 1013.8 hPa | 0 mm | - | - | - |
| 1777517292 | 23.89° C | 80% | 1013.6 hPa | 0 mm | - | - | - |
| 1777516992 | 23.89° C | 80% | 1013.8 hPa | 0 mm | - | - | - |
| 1777516947 | 24.44° C | 78% | 1013.6 hPa | 0 mm | - | - | - |
| 1777516693 | 24.44° C | 80% | 1013.7 hPa | 0 mm | - | - | - |
| 1777516533 | 24.44° C | 79% | 1013.9 hPa | 0 mm | - | - | - |
| 1777516393 | 24.44° C | 79% | 1013.9 hPa | 0 mm | - | - | - |
| 1777516309 | 24.44° C | 78% | 1013.9 hPa | 0 mm | - | - | - |
| 1777516092 | 24.44° C | 78% | 1013.9 hPa | 0 mm | - | - | - |
| 1777515793 | 24.44° C | 78% | 1013.6 hPa | 0 mm | - | - | - |
| 1777515528 | 24.44° C | 77% | 1013.6 hPa | 0 mm | - | - | - |
| 1777515492 | 24.44° C | 77% | 1013.6 hPa | 0 mm | - | - | - |
| 1777515193 | 25° C | 76% | 1013.5 hPa | 0 mm | - | - | - |
| 1777515050 | 25.56° C | 70% | 1012.7 hPa | 0 mm | - | - | - |
| 1777514893 | 25° C | 75% | 1013.5 hPa | 0 mm | - | - | - |
| 1777514592 | 25° C | 74% | 1013.5 hPa | 0 mm | - | - | - |
| 1777514293 | 25° C | 74% | 1013.4 hPa | 0 mm | - | - | - |
| 1777513993 | 25° C | 73% | 1013.2 hPa | 0 mm | - | - | - |
| 1777513693 | 25.56° C | 72% | 1013.1 hPa | 0 mm | - | - | - |
| 1777513609 | 25.56° C | 71% | 1013 hPa | 0 mm | - | - | - |
| 1777513393 | 25.56° C | 71% | 1013 hPa | 0 mm | - | - | - |
| 1777513093 | 25.56° C | 70% | 1012.7 hPa | 0 mm | - | - | - |
| 1777512793 | 25.56° C | 70% | 1012.8 hPa | 0 mm | - | - | - |
* Rain latest hour (hover to see other rain measurements)
** Current wind speed in m/s (hover to see current wind gust speed)